Terminal Aerodrome Forecast
Issued by NWS Cleveland, OH

Home | Current Version | Previous Version | Text Only | Print | Product List | Glossary Off
Versions: 1 2 3 4 5 6 7 8 9 10 11 12 13 14 15 16 17 18 19 20 21 22 23 24 25

000
FTUS41 KCLE 150300 AAA
TAFCLE
TAF AMD
KCLE 150302Z 1503/1606 36010KT P6SM SCT007 OVC025
      TEMPO 1503/1506 4SM -RA BR BKN007 OVC025
     FM150600 36012KT 4SM -RA BR BKN007 OVC015
      TEMPO 1506/1509 2SM RA BR OVC007
     FM150900 34012G20KT 1SM -SN BR OVC007
     FM151300 34015G25KT 3SM -SN BR BKN015 OVC025
     FM151400 34015G25KT P6SM BKN025 OVC035
     FM151800 32015G25KT P6SM BKN035
     FM152200 32010KT P6SM SCT035=

USA.gov is the U.S. government's official web portal to all federal, state and local government web resources and services.